Latest Weather Observations for Bedout Island

IDW60801

Issued at 10:33 pm WST Saturday 23 January 2021 (issued every 10 minutes, with the page automatically refreshed every 10 minutes)

About weather observations | Map of weather stations | Latest weather observations for WA | Other Formats
Station Details ID: 004100 Name: BEDOUT ISLAND Lat: -19.59 Lon: 119.10 Height: 8.6 m
Data from the previous 72 hours. | See also: Recent months at Bedout Island
Date/Time
WST
Temp
°C
App
Temp
°C
Dew
Point
°C
Rel
Hum
%
Delta-T
°C
Wind Press
QNH
hPa
Press
MSL
hPa
Rain since
9am
mm
Dir  Spd
km/h
Gust
km/h
Spd
kts
Gust
kts
23/10:30pm 29.9 31.3 29.5 98 0.3 WNW 43 48 23 26 1004.0 1003.9 -
23/10:00pm 29.8 31.5 29.4 98 0.3 WNW 41 46 22 25 1004.3 1004.2 -
23/09:30pm 29.7 31.1 29.5 99 0.1 WNW 43 50 23 27 1003.9 1003.8 -
23/09:00pm 29.5 30.2 29.3 99 0.1 W 46 52 25 28 1003.7 1003.6 -
23/08:30pm 29.6 29.6 29.4 99 0.1 W 50 57 27 31 1003.3 1003.2 -
23/08:00pm 30.0 30.3 29.8 99 0.1 W 50 57 27 31 1002.9 1002.8 -
23/07:30pm 29.9 30.9 29.7 99 0.1 W 46 56 25 30 1002.8 1002.7 -
23/07:00pm 29.9 30.9 29.7 99 0.1 WNW 46 54 25 29 1002.8 1002.7 -
23/06:30pm 30.2 31.3 29.8 98 0.3 WNW 46 52 25 28 1002.6 1002.5 -
23/06:00pm 30.5 32.2 30.1 98 0.3 WNW 44 50 24 27 1002.5 1002.4 -
23/05:30pm 30.8 33.0 30.4 98 0.3 WNW 43 48 23 26 1002.3 1002.2 -
23/05:00pm 31.4 34.4 31.0 98 0.3 WNW 41 46 22 25 1002.4 1002.3 -
23/04:30pm 31.7 35.0 31.3 98 0.3 WNW 41 46 22 25 1002.2 1002.1 -
23/04:00pm 32.2 36.3 31.8 98 0.3 WNW 39 46 21 25 1002.1 1002.0 -
23/03:30pm 32.1 35.9 31.4 96 0.5 W 39 46 21 25 1002.0 1001.9 -
23/03:00pm 32.4 36.7 32.0 98 0.3 W 39 44 21 24 1002.2 1002.1 -
23/02:30pm 32.3 36.3 31.2 94 0.8 W 37 43 20 23 1002.2 1002.1 -
23/02:00pm 32.7 36.9 31.0 91 1.3 W 35 43 19 23 1002.2 1002.1 -
23/01:30pm 32.7 37.1 31.2 92 1.1 W 35 43 19 23 1002.4 1002.3 -
23/01:00pm 33.1 38.2 31.6 92 1.1 W 33 41 18 22 1002.5 1002.4 -
23/12:30pm 33.4 38.6 31.7 91 1.3 W 33 39 18 21 1002.6 1002.5 -
23/12:00pm 32.9 38.1 32.2 96 0.5 W 35 39 19 21 1002.7 1002.6 -
23/11:30am 32.7 38.4 32.3 98 0.3 W 33 37 18 20 1002.9 1002.8 -
23/11:00am 32.5 38.2 32.1 98 0.3 W 32 37 17 20 1003.2 1003.1 -
23/10:30am 32.4 38.4 32.0 98 0.3 W 30 35 16 19 1003.5 1003.4 -
23/10:00am 32.3 37.8 31.9 98 0.3 W 32 35 17 19 1003.7 1003.6 -
23/09:30am 31.1 36.1 30.9 99 0.2 W 30 33 16 18 1003.6 1003.5 -
23/09:00am 30.9 36.2 30.7 99 0.2 W 28 33 15 18 1003.5 1003.4 -
23/08:30am 30.4 34.9 30.2 99 0.1 WSW 30 32 16 17 1003.5 1003.4 -
23/08:00am 30.0 33.6 29.8 99 0.1 W 33 37 18 20 1003.4 1003.3 -
23/07:30am 29.9 33.4 29.7 99 0.1 W 33 37 18 20 1003.2 1003.1 -
23/07:00am 29.7 32.8 29.7 100 0.0 W 35 41 19 22 1002.8 1002.7 -
23/06:30am 29.8 33.4 29.8 100 0.0 W 33 39 18 21 1002.4 1002.3 -
23/06:00am 29.7 32.8 29.7 100 0.0 W 35 39 19 21 1001.8 1001.7 -
23/05:30am 29.5 33.8 29.5 100 0.0 WSW 28 32 15 17 1001.6 1001.5 -
23/05:00am 29.5 34.2 29.5 100 0.0 W 26 30 14 16 1001.2 1001.1 -
23/04:30am 29.3 33.3 29.1 99 0.1 WSW 28 32 15 17 1001.1 1001.0 -
23/04:00am 29.4 32.9 29.4 100 0.0 W 32 37 17 20 1001.0 1000.9 -
23/03:30am 29.2 32.3 29.2 100 0.0 W 33 39 18 21 1001.0 1000.9 -
23/03:00am 29.3 32.7 29.3 100 0.0 WSW 32 37 17 20 1001.0 1000.9 -
23/02:43am 29.1 33.1 29.1 100 0.0 WSW 28 33 15 18 1001.0 1000.9 -
23/02:30am 28.9 37.1 28.7 99 0.1 S 4 11 2 6 1001.1 1001.0 -
23/02:00am 28.7 35.8 28.5 99 0.1 SSE 9 11 5 6 1001.3 1001.2 -
23/01:30am 28.5 34.7 28.3 99 0.1 SSE 13 17 7 9 1001.4 1001.3 -
23/01:00am 28.5 33.2 28.5 100 0.0 W 22 30 12 16 1001.5 1001.4 -
23/12:30am 29.1 33.1 29.1 100 0.0 SW 28 37 15 20 1001.6 1001.5 -
23/12:00am 28.3 32.1 28.3 100 0.0 WSW 26 33 14 18 1001.7 1001.6 -
 
Date/Time
WST
Temp
°C
App
Temp
°C
Dew
Point
°C
Rel
Hum
%
Delta-T
°C
Wind Press
QNH
hPa
Press
MSL
hPa
Rain since
9am
mm
Dir  Spd
km/h
Gust
km/h
Spd
kts
Gust
kts
22/11:30pm 27.2 28.5 27.2 100 0.0 W 35 46 19 25 1001.9 1001.8 -
22/11:24pm 27.1 27.5 27.1 100 0.0 W 39 46 21 25 1002.1 1002.0 -
22/11:00pm 27.4 29.4 27.4 100 0.0 SW 32 43 17 23 1002.4 1002.3 -
22/10:54pm 27.3 30.0 27.3 100 0.0 SSW 28 37 15 20 1002.6 1002.5 -
22/10:30pm 26.4 25.0 26.4 100 0.0 SW 46 67 25 36 1002.4 1002.3 -
22/10:28pm 27.1 26.6 27.1 100 0.0 SW 44 63 24 34 1002.4 1002.3 -
22/10:25pm 28.5 29.0 28.3 99 0.1 WSW 43 56 23 30 1002.8 1002.7 -
22/10:00pm 30.2 33.9 30.0 99 0.1 W 33 37 18 20 1002.3 1002.2 -
22/09:30pm 29.3 32.3 29.0 98 0.2 W 33 39 18 21 1002.2 1002.1 -
22/09:00pm 30.1 33.8 29.7 98 0.3 W 32 39 17 21 1002.1 1002.0 -
22/08:30pm 30.6 33.4 28.0 86 1.9 SW 30 43 16 23 1002.0 1001.9 -
22/08:00pm 31.2 30.9 23.8 64 5.2 SSW 32 35 17 19 1001.8 1001.7 -
22/07:30pm 31.2 30.7 23.6 64 5.3 SSW 32 39 17 21 1001.3 1001.2 -
22/07:00pm 31.2 30.3 23.8 64 5.2 S 35 41 19 22 1000.8 1000.7 -
22/06:30pm 31.0 31.7 24.9 70 4.3 S 30 39 16 21 1000.4 1000.3 -
22/06:00pm 31.0 30.8 24.4 68 4.6 S 33 41 18 22 1000.3 1000.2 -
22/05:30pm 31.3 29.5 24.2 66 5.0 SSE 41 52 22 28 999.8 999.7 -
22/05:00pm 31.3 29.5 24.2 66 5.0 S 41 50 22 27 999.5 999.4 -
22/04:30pm 31.1 29.3 24.2 66 4.8 SSE 41 50 22 27 999.5 999.4 -
22/04:00pm 32.1 30.7 24.2 63 5.5 S 39 48 21 26 999.5 999.4 -
22/03:30pm 31.6 30.3 24.5 66 5.0 S 39 50 21 27 999.8 999.7 -
22/03:00pm 31.4 30.7 23.5 63 5.5 S 33 43 18 23 1000.1 1000.0 -
22/02:30pm 31.0 31.1 25.4 72 4.0 SSE 35 44 19 24 1000.5 1000.4 -
22/02:00pm 30.4 29.1 25.0 73 3.8 S 41 48 22 26 1001.2 1001.1 -
22/01:30pm 30.1 29.0 25.4 76 3.3 S 41 52 22 28 1001.7 1001.6 -
22/01:00pm 29.7 28.0 25.4 78 3.0 S 44 57 24 31 1002.3 1002.2 -
22/12:30pm 29.3 28.5 27.3 89 1.4 S 46 63 25 34 1002.5 1002.4 -
22/12:28pm 28.9 28.1 26.7 88 1.6 S 44 63 24 34 1002.5 1002.4 -
22/12:00pm 28.2 26.9 27.1 94 0.8 S 48 59 26 32 1003.0 1002.9 -
22/11:30am 27.9 27.6 27.2 96 0.5 S 43 54 23 29 1003.2 1003.1 -
22/11:00am 28.1 28.1 27.8 98 0.2 SSE 44 56 24 30 1003.5 1003.4 -
22/10:30am 27.2 26.7 26.9 98 0.2 S 43 59 23 32 1003.6 1003.5 -
22/10:00am 27.0 25.8 26.7 98 0.2 SSE 46 57 25 31 1003.6 1003.5 -
22/09:48am 27.0 26.2 26.7 98 0.2 SSE 44 63 24 34 1003.5 1003.4 -
22/09:30am 26.9 26.0 26.6 98 0.2 SSE 44 57 24 31 1003.3 1003.2 -
22/09:23am 27.1 27.7 26.8 98 0.2 S 37 56 20 30 1003.4 1003.3 -
22/09:00am 26.9 27.0 26.6 98 0.2 S 39 52 21 28 1003.7 1003.6 -
22/08:30am 26.4 26.9 26.1 98 0.2 S 35 48 19 26 1003.7 1003.6 -
22/08:02am 25.9 25.8 25.7 99 0.1 S 37 56 20 30 1003.7 1003.6 -
22/08:00am 25.8 25.2 25.6 99 0.1 SSE 39 56 21 30 1003.7 1003.6 -
22/07:30am 25.4 24.2 25.2 99 0.1 S 41 50 22 27 1003.6 1003.5 -
22/07:00am 24.9 24.3 24.9 100 0.0 SSE 37 48 20 26 1003.9 1003.8 -
22/06:30am 24.1 23.0 24.1 100 0.0 S 37 48 20 26 1003.6 1003.5 -
22/06:00am 24.4 23.8 24.4 100 0.0 S 35 50 19 27 1003.4 1003.3 -
22/05:30am 25.7 24.3 25.5 99 0.1 SSE 43 52 23 28 1002.6 1002.5 -
22/05:00am 26.3 23.6 26.1 99 0.1 SE 52 61 28 33 1002.2 1002.1 -
22/04:30am 26.5 23.9 26.3 99 0.1 SE 52 61 28 33 1002.1 1002.0 -
22/04:00am 26.7 24.6 26.4 98 0.2 SE 50 63 27 34 1001.9 1001.8 -
22/03:30am 26.9 25.3 26.6 98 0.2 SE 48 59 26 32 1001.9 1001.8 -
22/03:00am 27.2 25.8 26.9 98 0.2 SSE 48 57 26 31 1002.1 1002.0 -
22/02:30am 26.8 24.7 26.5 98 0.2 SSE 50 57 27 31 1002.4 1002.3 -
22/02:00am 26.9 25.0 26.7 99 0.1 SE 50 65 27 35 1002.5 1002.4 -
22/01:30am 27.7 25.2 27.5 99 0.1 ESE 56 67 30 36 1002.0 1001.9 -
22/01:00am 27.3 27.0 27.1 99 0.1 ESE 43 52 23 28 1003.0 1002.9 -
22/12:30am 27.6 26.5 27.4 99 0.1 ESE 48 59 26 32 1003.1 1003.0 -
22/12:00am 28.5 28.1 28.3 99 0.1 E 48 57 26 31 1003.0 1002.9 -
 
Date/Time
WST
Temp
°C
App
Temp
°C
Dew
Point
°C
Rel
Hum
%
Delta-T
°C
Wind Press
QNH
hPa
Press
MSL
hPa
Rain since
9am
mm
Dir  Spd
km/h
Gust
km/h
Spd
kts
Gust
kts
21/11:45pm 28.5 28.1 28.3 99 0.1 E 48 61 26 33 1003.2 1003.1 -
21/11:30pm 28.0 24.0 27.8 99 0.1 E 65 82 35 44 1003.3 1003.2 -
21/11:00pm 29.2 23.7 27.0 88 1.6 E 70 89 38 48 1003.6 1003.5 -
21/10:52pm 29.3 23.8 27.1 88 1.6 E 70 89 38 48 1003.2 1003.1 -
21/10:30pm 29.4 27.4 28.5 95 0.7 E 57 74 31 40 1003.6 1003.5 -
21/10:00pm 29.8 26.3 28.5 93 1.0 E 65 76 35 41 1004.3 1004.2 -
21/09:30pm 30.0 29.0 29.5 97 0.4 E 56 67 30 36 1004.0 1003.9 -
21/09:00pm 30.4 27.7 25.5 75 3.5 ESE 50 59 27 32 1003.5 1003.4 -
21/08:30pm 29.9 31.3 29.4 97 0.4 E 43 52 23 28 1003.5 1003.4 -
21/08:00pm 29.2 30.9 28.9 98 0.2 E 39 44 21 24 1003.6 1003.5 -
21/07:30pm 28.9 30.0 28.6 98 0.2 E 41 46 22 25 1003.7 1003.6 -
21/07:00pm 29.5 31.1 29.2 98 0.2 E 41 48 22 26 1004.0 1003.9 -
21/06:30pm 30.1 30.1 27.5 86 1.9 ENE 43 50 23 27 1003.5 1003.4 -
21/06:00pm 29.8 32.3 29.4 98 0.3 ENE 37 43 20 23 1003.9 1003.8 -
21/05:30pm 29.9 32.2 29.2 96 0.5 NE 37 43 20 23 1003.8 1003.7 -
21/05:00pm 30.3 32.8 29.4 95 0.7 ENE 37 43 20 23 1004.0 1003.9 -
21/04:30pm 30.3 31.9 27.7 86 1.9 ENE 35 41 19 22 1003.8 1003.7 -
21/04:00pm 30.4 31.5 28.6 90 1.3 ENE 41 46 22 25 1004.0 1003.9 -
21/03:30pm 30.6 34.1 30.2 98 0.3 ENE 35 46 19 25 1004.0 1003.9 -
21/03:00pm 30.5 34.3 29.8 96 0.5 ENE 32 39 17 21 1003.8 1003.7 -
21/02:30pm 30.3 33.6 29.2 94 0.8 ENE 32 35 17 19 1004.0 1003.9 -
21/02:00pm 29.7 32.3 29.5 99 0.1 ENE 37 41 20 22 1004.6 1004.5 -
21/01:30pm 30.1 33.9 29.9 99 0.1 ENE 32 39 17 21 1004.9 1004.9 -
21/01:00pm 29.2 32.5 29.2 100 0.0 NNE 32 37 17 20 1005.1 1005.1 -
21/12:30pm 28.9 30.6 28.9 100 0.0 NE 39 46 21 25 1005.7 1005.7 -
21/12:09pm 28.5 29.9 28.5 100 0.0 NE 39 44 21 24 1006.1 1006.1 -
21/12:03pm 28.4 29.8 28.4 100 0.0 NNE 39 46 21 25 1006.2 1006.2 -
21/12:00pm 28.5 29.9 28.5 100 0.0 NNE 39 46 21 25 1006.1 1006.1 -
21/11:30am 29.1 30.4 28.8 98 0.2 NNE 41 46 22 25 1006.3 1006.3 -
21/11:00am 28.3 28.5 28.1 99 0.1 NNE 44 50 24 27 1006.3 1006.3 -
21/10:30am 28.6 29.0 28.4 99 0.1 NNE 44 56 24 30 1006.6 1006.6 -
21/10:22am 29.4 31.7 29.2 99 0.1 NE 37 57 20 31 1006.6 1006.6 -
21/10:18am 30.5 34.5 30.1 98 0.3 NE 32 57 17 31 1006.6 1006.6 -
21/10:00am 31.9 37.6 31.7 99 0.2 NE 30 35 16 19 1006.9 1006.9 -
21/09:30am 32.1 38.6 31.7 98 0.3 ENE 26 28 14 15 1006.9 1006.9 -
21/09:00am 32.6 39.5 32.2 98 0.3 NE 26 30 14 16 1007.0 1007.0 -
21/08:30am 32.1 39.9 31.9 99 0.2 NE 20 24 11 13 1006.8 1006.8 -
21/08:00am 31.4 38.6 31.2 99 0.2 ENE 20 22 11 12 1006.5 1006.5 -
21/07:30am 30.8 37.9 30.8 100 0.0 NE 19 20 10 11 1006.5 1006.5 -
21/07:00am 30.5 38.4 30.5 100 0.0 NE 13 17 7 9 1006.3 1006.3 -
21/06:30am 30.3 38.8 30.3 100 0.0 NE 9 13 5 7 1006.1 1006.1 -
21/06:00am 29.9 37.7 29.9 100 0.0 NE 11 13 6 7 1006.0 1006.0 -
21/05:30am 30.0 37.5 30.0 100 0.0 NE 13 15 7 8 1005.7 1005.7 -
21/05:00am 29.7 38.3 29.7 100 0.0 SE 6 7 3 4 1005.6 1005.6 -
21/04:30am 30.0 40.0 30.0 100 0.0 CALM 0 6 0 3 1005.5 1005.5 -
21/04:00am 29.8 39.6 29.8 100 0.0 CALM 0 6 0 3 1005.3 1005.3 -
21/03:30am 29.6 39.3 29.6 100 0.0 CALM 0 2 0 1 1005.2 1005.2 -
21/03:00am 29.8 39.6 29.8 100 0.0 CALM 0 4 0 2 1005.5 1005.5 -
21/02:30am 29.8 39.6 29.8 100 0.0 CALM 0 6 0 3 1005.6 1005.6 -
21/02:00am 29.9 39.8 29.9 100 0.0 CALM 0 0 0 0 1005.6 1005.6 -
21/01:30am 30.3 40.6 30.3 100 0.0 CALM 0 6 0 3 1005.9 1005.9 -
21/01:00am 30.1 40.2 30.1 100 0.0 CALM 0 2 0 1 1006.1 1006.1 -
21/12:30am 30.3 40.6 30.3 100 0.0 CALM 0 4 0 2 1006.0 1006.0 -
21/12:00am 30.1 40.2 30.1 100 0.0 CALM 0 2 0 1 1006.2 1006.2 -
 
Date/Time
WST
Temp
°C
App
Temp
°C
Dew
Point
°C
Rel
Hum
%
Delta-T
°C
Wind Press
QNH
hPa
Press
MSL
hPa
Rain since
9am
mm
Dir  Spd
km/h
Gust
km/h
Spd
kts
Gust
kts
20/11:30pm 30.4 40.7 30.4 100 0.0 CALM 0 4 0 2 1006.2 1006.2 -
20/11:00pm 30.4 40.7 30.4 100 0.0 CALM 0 6 0 3 1006.3 1006.3 -

Other formats

Comma delimited format used in spreadsheet applications
http://www.bom.gov.au/fwo/IDW60801/IDW60801.94310.axf

JavaScript Object Notation format (JSON) in row-major order
http://www.bom.gov.au/fwo/IDW60801/IDW60801.94310.json

Data quality

Most of these data are generated automatically and are frequently updated. Quality checks on data are not normally performed. It is possible for incorrect values to appear. Refer to information at About Latest Weather Observations and please check the disclaimer before using these data.